Time;durP1;ratioP1;P1;durP2;ratioP2;P2;SDS_P1;SDS_P2;PMS_P1;PMS_P2;Temp;Humidity;BMP_temperature;BMP_pressure;BME280_temperature;BME280_humidity;BME280_pressure;Samples;Min_cycle;Max_cycle;Signal;HPM_P1;HPM_P2
2024/03/04 00:01:21;;;;;;;8.80;4.80;;;;;;;2.92;62.54;99695.69;79822;1301;3012838;-80
2024/03/04 00:03:48;;;;;;;11.90;5.70;;;;;;;2.85;62.51;99695.33;79781;1296;3011619;-78
2024/03/04 00:06:17;;;;;;;17.80;5.50;;;;;;;2.85;62.75;99699.14;78585;1298;3050275;-80
2024/03/04 00:08:43;;;;;;;9.50;5.50;;;;;;;2.84;62.73;99697.42;79891;1298;3013783;-78
2024/03/04 00:11:11;;;;;;;11.40;5.40;;;;;;;2.89;62.58;99692.98;79614;1296;3011466;-78
2024/03/04 00:13:39;;;;;;;10.20;5.40;;;;;;;2.90;62.55;99689.85;78538;1295;3051512;-80
2024/03/04 00:16:09;;;;;;;9.30;5.50;;;;;;;2.75;62.85;99686.60;79601;1301;3015750;-80
2024/03/04 00:18:38;;;;;;;8.80;5.00;;;;;;;2.82;62.86;99688.98;79226;1296;3011536;-78
2024/03/04 00:21:05;;;;;;;10.30;5.30;;;;;;;2.66;63.23;99690.24;79884;1300;3019003;-80
2024/03/04 00:23:33;;;;;;;17.30;5.30;;;;;;;2.72;63.24;99689.44;80296;1301;3011634;-80
2024/03/04 00:26:01;;;;;;;10.10;5.00;;;;;;;2.73;63.03;99691.13;78502;1299;3052117;-80
2024/03/04 00:28:27;;;;;;;16.00;5.50;;;;;;;2.84;62.91;99694.33;79505;1301;3013039;-80
2024/03/04 00:30:54;;;;;;;12.70;5.30;;;;;;;2.70;63.27;99692.43;79789;1301;3011604;-83
2024/03/04 00:33:22;;;;;;;11.90;5.50;;;;;;;2.70;63.15;99695.02;78550;1295;3027087;-82
2024/03/04 00:35:49;;;;;;;14.50;5.00;;;;;;;2.75;63.28;99691.77;79596;1297;3013439;-82
2024/03/04 00:38:22;;;;;;;12.70;5.00;;;;;;;2.75;63.15;99695.24;79780;1300;3011982;-82
2024/03/04 00:40:52;;;;;;;13.50;5.60;;;;;;;2.72;63.13;99696.87;78546;1297;3050150;-82
2024/03/04 00:43:21;;;;;;;13.40;5.40;;;;;;;2.71;63.19;99692.39;79667;1301;3011672;-81
2024/03/04 00:45:50;;;;;;;12.50;4.70;;;;;;;2.67;63.30;99696.48;78477;1295;3052646;-82
2024/03/04 00:48:18;;;;;;;10.70;5.10;;;;;;;2.73;63.05;99698.40;79797;1296;3011371;-82
2024/03/04 00:50:49;;;;;;;11.80;5.10;;;;;;;2.67;63.23;99694.23;79767;1301;3048251;-79
2024/03/04 00:53:16;;;;;;;9.60;4.90;;;;;;;2.61;63.29;99702.85;80953;1295;3013820;-80
2024/03/04 00:55:42;;;;;;;10.30;5.20;;;;;;;2.65;63.34;99698.60;79995;1300;3013160;-80
2024/03/04 00:58:10;;;;;;;11.90;5.50;;;;;;;2.60;63.72;99697.52;78459;1301;3051807;-78
2024/03/04 01:00:39;;;;;;;13.70;5.60;;;;;;;2.65;63.41;99699.45;79620;1301;3015590;-77
2024/03/04 01:03:08;;;;;;;9.40;4.90;;;;;;;2.62;63.55;99695.88;79672;1295;3011699;-79
2024/03/04 01:05:38;;;;;;;9.00;5.50;;;;;;;2.55;63.88;99694.01;78471;1295;3048881;-80
2024/03/04 01:08:07;;;;;;;9.80;5.60;;;;;;;2.58;63.37;99695.66;79635;1295;3012877;-80
2024/03/04 01:10:35;;;;;;;10.40;5.10;;;;;;;2.51;63.77;99697.73;78566;1298;3052729;-78
2024/03/04 01:13:02;;;;;;;10.90;5.40;;;;;;;2.50;64.02;99699.81;79861;1295;3018605;-78
2024/03/04 01:15:29;;;;;;;12.50;6.00;;;;;;;2.44;64.45;99698.75;79805;1295;3013284;-78
2024/03/04 01:17:59;;;;;;;10.40;5.20;;;;;;;2.45;64.34;99698.55;78629;1296;3054329;-77
2024/03/04 01:20:28;;;;;;;10.90;5.50;;;;;;;2.50;64.34;99697.57;79779;1295;3013476;-76
2024/03/04 01:22:56;;;;;;;16.00;5.90;;;;;;;2.52;64.16;99700.47;78555;1298;3028736;-78
2024/03/04 01:25:23;;;;;;;14.20;5.70;;;;;;;2.48;64.21;99697.61;79826;1298;3013115;-80
2024/03/04 01:27:51;;;;;;;13.60;5.80;;;;;;;2.48;64.17;99701.26;79781;1295;3013046;-80
2024/03/04 01:30:19;;;;;;;13.90;5.90;;;;;;;2.45;64.56;99697.88;78586;1298;3069659;-77
2024/03/04 01:32:47;;;;;;;9.50;5.60;;;;;;;2.44;64.42;99702.04;79979;1298;3012903;-79
2024/03/04 01:35:17;;;;;;;13.20;5.60;;;;;;;2.47;64.18;99699.02;79364;1296;3012974;-76
2024/03/04 01:37:44;;;;;;;10.70;5.40;;;;;;;2.45;64.21;99700.81;79655;1294;3013162;-78
2024/03/04 01:40:13;;;;;;;14.00;5.80;;;;;;;2.48;64.34;99703.86;79752;1298;3011619;-78
2024/03/04 01:42:44;;;;;;;12.30;6.10;;;;;;;2.41;64.55;99702.96;79619;1298;3051411;-78
2024/03/04 01:45:23;;;;;;;10.50;5.40;;;;;;;2.49;64.25;99706.08;79811;1298;3012967;-79
2024/03/04 01:47:56;;;;;;;14.80;5.40;;;;;;;2.48;64.21;99706.79;78265;1298;3068317;-80
2024/03/04 01:50:25;;;;;;;12.00;4.90;;;;;;;2.51;64.10;99709.82;79729;1298;3011474;-78
2024/03/04 01:52:54;;;;;;;13.70;5.50;;;;;;;2.56;64.06;99707.64;78636;1298;3056803;-77
2024/03/04 01:55:21;;;;;;;8.40;5.20;;;;;;;2.54;64.00;99703.52;79897;1295;3012703;-78
2024/03/04 01:57:48;;;;;;;12.70;5.70;;;;;;;2.46;64.28;99704.76;79713;1296;3011814;-78
2024/03/04 02:00:16;;;;;;;12.20;5.50;;;;;;;2.25;64.64;99707.48;78589;1298;3052341;-78
2024/03/04 02:02:43;;;;;;;13.90;6.10;;;;;;;2.34;64.83;99706.41;79854;1295;3013001;-78
2024/03/04 02:05:09;;;;;;;12.00;5.90;;;;;;;2.35;64.56;99708.98;79927;1295;3011641;-80
2024/03/04 02:07:38;;;;;;;13.70;5.60;;;;;;;2.35;64.63;99708.98;78647;1295;3026490;-79
2024/03/04 02:10:06;;;;;;;12.20;5.80;;;;;;;2.33;64.72;99708.69;79846;1296;3012699;-79
2024/03/04 02:12:33;;;;;;;16.20;5.90;;;;;;;2.31;64.80;99703.36;79811;1295;3011742;-79
2024/03/04 02:15:01;;;;;;;8.60;5.40;;;;;;;2.26;65.08;99705.21;78401;1298;3052818;-81
2024/03/04 02:17:28;;;;;;;13.90;6.00;;;;;;;2.24;65.12;99706.30;79842;1295;3013804;-77
2024/03/04 02:19:56;;;;;;;13.50;5.90;;;;;;;2.38;64.64;99706.52;79698;1295;3011597;-79
2024/03/04 02:22:29;;;;;;;20.10;6.90;;;;;;;2.37;64.70;99709.63;78591;1295;3057551;-77
2024/03/04 02:24:56;;;;;;;10.70;6.20;;;;;;;2.30;64.94;99708.58;79823;1298;3011626;-78
2024/03/04 02:27:26;;;;;;;11.80;5.50;;;;;;;2.24;65.09;99710.27;78623;1298;3053727;-79
2024/03/04 02:29:52;;;;;;;12.90;5.80;;;;;;;2.30;64.81;99710.65;79729;1296;3011576;-80
2024/03/04 02:32:19;;;;;;;15.00;6.10;;;;;;;2.25;65.20;99712.66;79735;1301;3011856;-82
2024/03/04 02:34:47;;;;;;;12.20;6.40;;;;;;;2.14;65.35;99711.55;78494;1296;3068338;-82
2024/03/04 02:37:14;;;;;;;15.00;6.80;;;;;;;2.10;65.83;99711.96;79916;1296;3012853;-82
2024/03/04 02:40:01;;;;;;;12.10;5.90;;;;;;;2.09;65.77;99709.55;78774;1296;3047862;-79
2024/03/04 02:42:31;;;;;;;12.70;5.80;;;;;;;2.11;65.88;99710.20;79979;1295;3013392;-81
2024/03/04 02:44:59;;;;;;;11.70;5.40;;;;;;;2.09;66.02;99710.79;78866;1299;3053418;-82
2024/03/04 02:47:26;;;;;;;13.40;5.90;;;;;;;2.20;65.78;99709.86;80175;1298;3012896;-82
2024/03/04 02:49:53;;;;;;;13.80;5.20;;;;;;;2.16;65.76;99713.91;79838;1295;3011666;-81
2024/03/04 02:52:21;;;;;;;11.70;5.60;;;;;;;2.28;65.39;99711.92;78610;1296;3026389;-78
2024/03/04 02:54:47;;;;;;;10.40;5.30;;;;;;;2.24;65.39;99714.42;79778;1296;3014066;-79
2024/03/04 02:57:15;;;;;;;11.50;5.70;;;;;;;2.22;65.27;99715.15;79616;1296;3011597;-78
2024/03/04 02:59:43;;;;;;;12.40;5.40;;;;;;;2.16;65.29;99713.21;78660;1298;3050607;-79
2024/03/04 03:02:10;;;;;;;11.90;5.70;;;;;;;2.13;65.85;99710.02;79925;1296;3013452;-79
2024/03/04 03:04:36;;;;;;;13.90;6.20;;;;;;;2.21;65.65;99713.98;79809;1296;3011865;-78
2024/03/04 03:07:04;;;;;;;11.60;5.50;;;;;;;2.15;65.87;99712.89;78382;1295;3026221;-77
2024/03/04 03:09:31;;;;;;;13.60;5.40;;;;;;;2.19;65.72;99712.81;79619;1294;3013569;-79
2024/03/04 03:11:59;;;;;;;14.80;6.30;;;;;;;2.15;65.79;99715.66;79643;1301;3011553;-80
2024/03/04 03:14:27;;;;;;;12.40;5.10;;;;;;;2.22;65.71;99711.20;78652;1298;3053484;-76
2024/03/04 03:16:55;;;;;;;11.70;5.70;;;;;;;2.31;65.41;99709.26;79828;1296;3013041;-78
2024/03/04 03:19:26;;;;;;;11.80;5.10;;;;;;;2.24;65.57;99717.02;78560;1298;3051036;-77
2024/03/04 03:21:56;;;;;;;13.00;5.30;;;;;;;2.24;65.44;99714.43;79825;1298;3013182;-78
2024/03/04 03:24:24;;;;;;;14.00;5.00;;;;;;;2.19;65.59;99716.61;78488;1296;3026232;-79
2024/03/04 03:26:51;;;;;;;12.10;5.30;;;;;;;2.21;65.57;99718.80;79889;1298;3012981;-80
2024/03/04 03:29:18;;;;;;;12.60;6.20;;;;;;;2.19;65.74;99717.66;79753;1296;3011911;-78
2024/03/04 09:46:17;;;;;;;17.40;6.80;;;;;;;8.92;52.95;99701.45;80703;1302;3013976;-82
2024/03/04 09:48:45;;;;;;;14.30;6.60;;;;;;;9.00;52.83;99700.13;79412;1304;3012973;-82
2024/03/04 09:51:12;;;;;;;18.00;7.20;;;;;;;9.08;52.62;99696.44;79430;1302;3011420;-82
2024/03/04 09:53:42;;;;;;;16.30;6.60;;;;;;;9.08;52.50;99693.64;78419;1304;3052937;-81
2024/03/04 09:56:11;;;;;;;19.20;6.70;;;;;;;9.19;52.36;99687.82;80553;1304;3011887;-81
2024/03/04 09:58:38;;;;;;;17.70;7.20;;;;;;;9.31;52.08;99681.65;78237;1304;3026302;-81
2024/03/04 10:01:05;;;;;;;14.50;6.30;;;;;;;9.41;51.91;99680.58;79667;1304;3012967;-82
2024/03/04 10:03:32;;;;;;;14.50;6.00;;;;;;;9.44;51.86;99676.25;79872;1301;3011787;-81
2024/03/04 10:06:05;;;;;;;16.40;6.10;;;;;;;9.51;51.83;99676.39;78734;1304;3049458;-85
2024/03/04 10:08:32;;;;;;;13.30;6.20;;;;;;;9.51;51.75;99675.33;79985;1298;3011679;-86
2024/03/04 10:10:59;;;;;;;12.80;6.10;;;;;;;9.64;51.50;99672.55;78645;1298;3052683;-79
2024/03/04 10:13:26;;;;;;;15.10;6.60;;;;;;;9.87;51.06;99668.91;79520;1298;3013528;-81
2024/03/04 10:15:53;;;;;;;17.90;6.60;;;;;;;10.00;50.59;99669.23;79429;1303;3013482;-80
2024/03/04 10:18:22;;;;;;;13.60;5.80;;;;;;;10.07;50.50;99661.85;78440;1299;3026272;-85
2024/03/04 10:20:54;;;;;;;12.70;6.10;;;;;;;10.11;50.31;99666.48;79656;1299;3018522;-81
2024/03/04 10:23:23;;;;;;;13.40;6.00;;;;;;;10.13;50.20;99659.23;78626;1301;3050592;-84
2024/03/04 10:26:08;;;;;;;12.30;5.70;;;;;;;10.24;50.06;99662.45;79898;1301;3011896;-82
2024/03/04 10:28:41;;;;;;;11.40;5.50;;;;;;;10.34;49.85;99662.10;79083;1299;3051343;-83
2024/03/04 10:31:14;;;;;;;14.60;5.90;;;;;;;10.36;49.53;99659.88;80705;1298;3011584;-82
2024/03/04 10:33:42;;;;;;;14.80;6.40;;;;;;;10.38;49.47;99660.29;79757;1301;3050263;-82
2024/03/04 10:36:14;;;;;;;12.10;6.20;;;;;;;10.44;49.34;99657.74;81023;1298;3013022;-83
2024/03/04 10:38:43;;;;;;;11.20;6.10;;;;;;;10.48;49.24;99654.31;78869;1298;3051904;-85
2024/03/04 10:41:17;;;;;;;17.70;5.80;;;;;;;10.50;49.39;99658.60;79947;1300;3011901;-85
2024/03/04 10:43:46;;;;;;;13.70;6.30;;;;;;;10.65;49.15;99655.44;78525;1296;3068496;-84
2024/03/04 10:46:14;;;;;;;19.50;5.60;;;;;;;10.73;48.62;99654.98;79931;1300;3015611;-85
2024/03/04 10:48:42;;;;;;;15.80;6.30;;;;;;;10.84;48.26;99651.91;79852;1298;3013286;-83
2024/03/04 10:51:10;;;;;;;15.80;5.70;;;;;;;10.86;48.34;99648.96;78676;1301;3052878;-82
2024/03/04 10:53:37;;;;;;;12.70;5.60;;;;;;;10.93;48.32;99649.29;80104;1303;3013186;-84
2024/03/04 10:56:07;;;;;;;21.80;6.30;;;;;;;11.05;48.16;99640.15;79764;1304;3011700;-80
2024/03/04 10:58:37;;;;;;;15.90;5.70;;;;;;;11.09;47.79;99635.67;78855;1301;3069216;-83
2024/03/04 11:01:06;;;;;;;14.70;7.30;;;;;;;11.19;47.42;99636.35;80261;1299;3012740;-80
2024/03/04 11:03:54;;;;;;;15.70;6.50;;;;;;;11.24;47.38;99633.39;79931;1298;3056570;-84
2024/03/04 11:06:22;;;;;;;17.50;6.40;;;;;;;11.33;47.29;99635.52;79495;1297;3050625;-83
2024/03/04 11:08:55;;;;;;;17.70;5.70;;;;;;;11.43;47.04;99629.27;79904;1295;3016339;-86
2024/03/04 11:11:29;;;;;;;14.90;5.20;;;;;;;11.42;46.67;99628.12;78601;1304;3051647;-88
2024/03/04 11:14:06;;;;;;;14.90;5.80;;;;;;;11.34;46.34;99626.69;80050;1300;3011605;-88
2024/03/04 11:16:46;;;;;;;9.70;4.80;;;;;;;11.36;46.66;99624.45;78865;1297;3070074;-85
2024/03/04 11:19:29;;;;;;;20.50;5.60;;;;;;;11.45;46.39;99629.15;78787;1298;3051209;-86
2024/03/04 11:21:58;;;;;;;14.50;4.70;;;;;;;11.54;46.03;99623.14;78882;1300;3056202;-83
2024/03/04 11:24:24;;;;;;;16.40;5.50;;;;;;;11.60;46.08;99621.73;80057;1295;3011708;-84
2024/03/04 11:26:51;;;;;;;11.00;5.40;;;;;;;11.55;45.86;99620.79;79851;1295;3014034;-86
2024/03/04 11:29:19;;;;;;;10.60;4.90;;;;;;;11.65;45.45;99619.48;78504;1297;3026971;-85
2024/03/04 11:31:53;;;;;;;12.50;5.40;;;;;;;11.63;45.51;99621.91;79989;1298;3013086;-84
2024/03/04 11:34:21;;;;;;;;;;;;;;;11.61;45.55;99626.76;78818;1301;3049645;-85
2024/03/04 11:36:50;;;;;;;10.60;5.20;;;;;;;11.56;45.76;99626.04;80074;1301;3013525;-88
2024/03/04 11:39:24;;;;;;;19.90;6.10;;;;;;;11.66;45.60;99629.95;79486;1298;3012253;-86
2024/03/04 11:41:52;;;;;;;21.60;5.50;;;;;;;11.82;45.41;99630.02;80346;1298;3011954;-85
2024/03/04 11:44:27;;;;;;;15.10;4.80;;;;;;;11.90;45.11;99630.05;78928;1301;3050917;-85
2024/03/04 11:46:56;;;;;;;14.60;5.20;;;;;;;12.03;44.86;99628.73;79547;1295;3013170;-87
2024/03/04 11:49:31;;;;;;;16.60;5.70;;;;;;;12.12;44.56;99627.10;79870;1301;3013281;-86
2024/03/04 11:52:06;;;;;;;13.40;5.30;;;;;;;12.07;44.85;99626.71;78596;1295;3067469;-83
2024/03/04 11:54:36;;;;;;;17.00;5.10;;;;;;;12.12;44.67;99625.48;79316;1301;3013155;-84
2024/03/04 11:57:04;;;;;;;13.30;5.00;;;;;;;12.07;44.74;99620.39;79860;1298;3013705;-85
2024/03/04 11:59:35;;;;;;;10.10;5.00;;;;;;;12.16;44.46;99615.75;79421;1295;3011537;-83
2024/03/04 12:02:11;;;;;;;10.30;4.50;;;;;;;12.23;44.34;99614.23;80113;1300;3013682;-85
2024/03/04 12:04:42;;;;;;;12.60;5.10;;;;;;;12.14;44.41;99607.15;79049;1298;3052794;-87
2024/03/04 12:07:09;;;;;;;16.60;5.90;;;;;;;12.20;44.54;99605.33;80244;1296;3013779;-85
2024/03/04 12:09:40;;;;;;;11.50;6.00;;;;;;;12.25;44.47;99608.34;78854;1301;3025057;-86
2024/03/04 12:12:08;;;;;;;19.60;5.80;;;;;;;12.33;44.49;99610.08;79895;1301;3011970;-86
2024/03/04 12:14:37;;;;;;;14.70;5.70;;;;;;;12.35;44.13;99608.70;79349;1303;3026128;-85
2024/03/04 12:17:05;;;;;;;14.80;5.10;;;;;;;12.29;44.57;99613.36;81018;1299;3013593;-84
2024/03/04 12:19:34;;;;;;;28.20;6.80;;;;;;;12.19;44.49;99610.83;80405;1295;3011553;-82
2024/03/04 12:22:03;;;;;;;17.90;6.30;;;;;;;12.12;44.90;99609.86;80329;1300;3013672;-83
2024/03/04 12:24:31;;;;;;;20.20;5.90;;;;;;;12.06;45.24;99610.92;81437;1295;3011733;-83
2024/03/04 12:27:00;;;;;;;14.50;5.70;;;;;;;12.10;45.12;99613.03;79016;1299;3051977;-82
2024/03/04 12:29:27;;;;;;;13.80;4.90;;;;;;;12.18;44.87;99611.59;80084;1300;3013155;-83
2024/03/04 12:31:54;;;;;;;15.60;5.60;;;;;;;12.31;44.76;99611.27;80144;1296;3011675;-82
2024/03/04 12:34:26;;;;;;;14.50;5.60;;;;;;;12.30;44.55;99610.66;79159;1300;3055779;-81
2024/03/04 12:36:58;;;;;;;18.20;6.20;;;;;;;12.18;44.52;99612.14;80544;1295;3011604;-85
2024/03/04 12:39:26;;;;;;;12.70;4.70;;;;;;;12.17;44.37;99607.83;79682;1296;3052165;-83
2024/03/04 12:41:53;;;;;;;18.30;5.90;;;;;;;12.19;44.11;99609.56;80189;1311;3013212;-79
2024/03/04 12:44:21;;;;;;;11.80;5.30;;;;;;;12.30;43.87;99606.77;79952;1301;3011624;-82
2024/03/04 12:46:50;;;;;;;10.00;4.10;;;;;;;12.47;43.58;99606.21;78854;1295;3069529;-82
2024/03/04 12:49:17;;;;;;;16.40;4.10;;;;;;;12.60;43.09;99606.56;79926;1298;3013136;-81
2024/03/04 12:51:45;;;;;;;9.20;3.80;;;;;;;12.78;42.53;99603.64;79886;1301;3013029;-85
2024/03/04 12:54:26;;;;;;;10.50;4.00;;;;;;;12.88;42.48;99597.83;78682;1295;3052300;-82
2024/03/04 12:56:54;;;;;;;9.50;3.90;;;;;;;12.96;42.01;99594.35;78692;1298;3048651;-82
2024/03/04 12:59:22;;;;;;;8.70;4.40;;;;;;;13.06;41.89;99593.08;79926;1299;3013199;-84
2024/03/04 13:01:52;;;;;;;13.40;4.30;;;;;;;13.10;41.53;99591.27;78496;1301;3068214;-82
2024/03/04 13:04:18;;;;;;;7.40;4.10;;;;;;;13.02;41.84;99588.96;80131;1296;3013574;-83
2024/03/04 13:06:45;;;;;;;7.60;4.30;;;;;;;13.15;41.72;99592.46;80391;1296;3011515;-80
2024/03/04 13:09:15;;;;;;;7.70;4.30;;;;;;;13.23;41.45;99590.67;79768;1294;3027108;-86
2024/03/04 13:11:45;;;;;;;8.20;5.10;;;;;;;13.21;41.47;99590.66;80690;1298;3012961;-81
2024/03/04 13:14:19;;;;;;;7.80;4.70;;;;;;;13.23;41.53;99585.59;79143;1301;3051459;-78
2024/03/04 13:16:56;;;;;;;7.10;4.30;;;;;;;13.31;40.95;99584.51;79020;1299;3053534;-84
2024/03/04 13:19:23;;;;;;;8.70;4.70;;;;;;;13.40;40.78;99581.26;79893;1300;3013280;-80
2024/03/04 13:21:51;;;;;;;11.60;4.80;;;;;;;13.43;40.68;99579.81;79852;1301;3013188;-81
2024/03/04 13:24:19;;;;;;;11.30;5.10;;;;;;;13.39;40.61;99578.85;78629;1301;3048008;-81
2024/03/04 13:26:46;;;;;;;9.90;5.20;;;;;;;13.44;40.69;99574.85;80134;1298;3013058;-80
2024/03/04 13:29:12;;;;;;;11.70;5.60;;;;;;;13.44;41.01;99573.98;79967;1300;3013086;-80
2024/03/04 13:31:40;;;;;;;12.30;5.10;;;;;;;13.49;41.02;99573.07;78791;1300;3053382;-82
2024/03/04 13:34:07;;;;;;;9.90;5.30;;;;;;;13.42;41.02;99570.38;79783;1296;3015203;-77
2024/03/04 13:36:34;;;;;;;11.80;5.60;;;;;;;13.37;41.30;99563.70;79643;1295;3011780;-77
2024/03/04 13:39:03;;;;;;;11.50;6.00;;;;;;;13.34;41.10;99567.44;78523;1296;3049229;-77
2024/03/04 13:41:30;;;;;;;11.00;5.30;;;;;;;13.36;41.07;99565.19;79880;1299;3014568;-78
2024/03/04 13:43:57;;;;;;;8.30;5.20;;;;;;;13.32;41.06;99561.02;80134;1301;3013776;-80
2024/03/04 13:46:28;;;;;;;8.30;5.10;;;;;;;13.00;41.72;99562.36;78605;1301;3052220;-78
2024/03/04 13:48:54;;;;;;;13.50;5.40;;;;;;;12.92;41.90;99561.16;79828;1301;3011662;-78
2024/03/04 13:51:23;;;;;;;10.80;5.00;;;;;;;12.75;42.07;99561.95;81252;1299;3011402;-77
2024/03/04 13:53:50;;;;;;;10.50;5.70;;;;;;;12.71;42.44;99560.69;79855;1300;3012671;-80
2024/03/04 13:56:16;;;;;;;11.50;6.40;;;;;;;12.51;42.76;99568.71;79804;1295;3011581;-79
2024/03/04 13:58:44;;;;;;;10.70;6.90;;;;;;;12.42;42.98;99569.60;78705;1301;3025900;-79
2024/03/04 14:01:11;;;;;;;17.30;7.40;;;;;;;12.31;43.24;99569.66;79915;1300;3013355;-77
2024/03/04 14:03:38;;;;;;;11.60;7.30;;;;;;;12.21;43.52;99574.88;79780;1301;3011891;-76
2024/03/04 14:06:06;;;;;;;13.40;7.30;;;;;;;12.20;43.66;99576.90;78491;1299;3050753;-77
2024/03/04 14:08:33;;;;;;;16.90;7.40;;;;;;;12.14;43.71;99576.41;79844;1299;3013091;-80
2024/03/04 14:11:01;;;;;;;12.40;8.10;;;;;;;12.11;43.81;99578.48;79803;1295;3011436;-80
2024/03/04 14:13:28;;;;;;;14.20;7.60;;;;;;;12.06;43.79;99577.05;78648;1295;3050515;-79
2024/03/04 14:15:56;;;;;;;17.00;6.90;;;;;;;11.94;44.14;99573.84;79837;1301;3013171;-79
2024/03/04 14:18:23;;;;;;;13.70;6.80;;;;;;;11.82;44.33;99575.60;79804;1298;3011443;-79
2024/03/04 14:20:50;;;;;;;11.30;6.60;;;;;;;11.75;44.67;99572.01;78627;1296;3050882;-79
2024/03/04 14:23:17;;;;;;;13.40;6.00;;;;;;;11.73;44.76;99574.77;79944;1301;3018371;-77
2024/03/04 14:25:44;;;;;;;15.50;7.20;;;;;;;11.64;44.82;99570.23;79869;1301;3012133;-78
2024/03/04 14:28:14;;;;;;;17.10;6.00;;;;;;;11.55;45.10;99567.65;78530;1295;3025334;-78
2024/03/04 14:30:40;;;;;;;11.80;6.20;;;;;;;11.53;45.14;99569.16;79916;1298;3013690;-80
2024/03/04 14:33:07;;;;;;;18.20;6.90;;;;;;;11.49;45.31;99568.38;79898;1298;3011859;-78
2024/03/04 14:35:35;;;;;;;13.20;7.70;;;;;;;11.48;45.47;99569.50;78656;1301;3049980;-78
2024/03/04 14:38:03;;;;;;;19.70;8.00;;;;;;;11.51;45.48;99569.34;79832;1296;3012834;-79
2024/03/04 14:40:30;;;;;;;22.00;8.10;;;;;;;11.51;45.57;99571.58;79646;1294;3011491;-78
2024/03/04 14:42:58;;;;;;;15.40;6.90;;;;;;;11.57;45.43;99568.91;78697;1299;3049689;-81
2024/03/04 14:45:24;;;;;;;18.90;7.00;;;;;;;11.63;45.32;99568.22;79874;1300;3013401;-77
2024/03/04 14:47:51;;;;;;;22.30;7.90;;;;;;;11.67;45.25;99568.30;79868;1298;3013221;-78
2024/03/04 14:51:16;;;;;;;14.70;8.00;;;;;;;11.65;45.39;99563.86;80375;1304;3013581;-79
2024/03/04 14:53:43;;;;;;;19.10;7.30;;;;;;;11.66;45.20;99565.23;79459;1304;3013205;-80
2024/03/04 14:56:12;;;;;;;13.70;7.20;;;;;;;11.61;45.15;99557.27;79090;1304;3011924;-81
2024/03/04 14:58:38;;;;;;;13.60;8.70;;;;;;;11.57;45.45;99556.67;79577;1305;3013135;-83
2024/03/04 15:01:06;;;;;;;20.00;7.80;;;;;;;11.46;45.77;99556.98;79606;1302;3013519;-80
2024/03/04 15:03:34;;;;;;;17.90;8.20;;;;;;;11.44;45.65;99562.38;78494;1304;3050098;-79
2024/03/04 15:06:04;;;;;;;24.70;8.90;;;;;;;11.33;45.70;99559.91;80710;1296;3013302;-79
2024/03/04 15:08:34;;;;;;;13.40;8.40;;;;;;;11.26;45.80;99562.14;78465;1301;3052920;-80
2024/03/04 15:11:10;;;;;;;14.50;7.50;;;;;;;11.16;46.01;99560.08;79512;1301;3013296;-80
2024/03/04 15:13:39;;;;;;;16.60;7.60;;;;;;;11.10;45.98;99565.50;78396;1301;3052529;-77
2024/03/04 15:16:08;;;;;;;18.20;9.30;;;;;;;11.01;46.20;99565.73;79772;1301;3012696;-79
2024/03/04 15:18:36;;;;;;;17.60;9.20;;;;;;;10.95;46.17;99566.98;78484;1297;3049688;-78
2024/03/04 15:21:04;;;;;;;37.80;11.70;;;;;;;10.85;46.37;99565.98;79964;1298;3013245;-77
2024/03/04 15:23:31;;;;;;;28.30;10.90;;;;;;;10.73;46.68;99562.64;79644;1297;3011796;-79
2024/03/04 15:25:58;;;;;;;26.20;10.80;;;;;;;10.59;46.91;99564.04;78392;1298;3049964;-79
2024/03/04 15:28:25;;;;;;;24.60;8.90;;;;;;;10.47;46.95;99565.42;79831;1301;3012854;-77
2024/03/04 15:30:52;;;;;;;20.30;8.90;;;;;;;10.31;47.24;99570.15;79798;1298;3011831;-80
2024/03/04 15:33:19;;;;;;;27.30;9.90;;;;;;;10.21;47.40;99571.79;78635;1298;3029518;-81
2024/03/04 15:35:46;;;;;;;20.00;9.70;;;;;;;10.15;47.54;99572.66;79830;1298;3018080;-81
2024/03/04 15:38:13;;;;;;;22.20;10.60;;;;;;;10.02;47.95;99576.33;79760;1298;3011920;-80
2024/03/04 15:40:41;;;;;;;22.90;10.20;;;;;;;9.97;47.89;99575.06;78483;1298;3026660;-80
2024/03/04 15:43:08;;;;;;;23.90;11.00;;;;;;;9.94;48.05;99582.59;79903;1298;3013422;-81
2024/03/04 15:45:36;;;;;;;17.30;9.10;;;;;;;9.90;48.09;99581.05;79704;1299;3013166;-79
2024/03/04 15:48:06;;;;;;;21.40;8.50;;;;;;;9.75;48.54;99577.68;78463;1302;3051111;-81
2024/03/04 15:50:33;;;;;;;19.20;9.30;;;;;;;9.64;48.71;99579.50;79923;1298;3013376;-78
2024/03/04 15:53:04;;;;;;;17.60;8.80;;;;;;;9.56;48.95;99580.98;79143;1298;3011643;-81
2024/03/04 15:55:31;;;;;;;17.00;9.20;;;;;;;9.50;49.14;99582.91;79763;1300;3013260;-77
2024/03/04 15:58:00;;;;;;;21.60;10.20;;;;;;;9.37;49.21;99587.59;79726;1298;3011796;-79
2024/03/04 16:00:28;;;;;;;18.00;9.00;;;;;;;9.30;49.56;99587.14;78859;1298;3051662;-80
2024/03/04 16:02:57;;;;;;;18.70;9.10;;;;;;;9.21;49.70;99586.35;79930;1298;3011792;-78
2024/03/04 16:05:23;;;;;;;20.90;8.50;;;;;;;9.12;49.87;99595.06;79946;1298;3011593;-80
2024/03/04 16:07:51;;;;;;;16.80;10.00;;;;;;;9.01;50.38;99594.74;78693;1298;3050246;-79
2024/03/04 16:10:19;;;;;;;16.10;9.50;;;;;;;8.91;50.71;99598.23;79713;1297;3011603;-78
2024/03/04 16:12:47;;;;;;;19.10;9.50;;;;;;;8.89;50.73;99597.45;79792;1298;3012410;-78
2024/03/04 16:15:15;;;;;;;20.00;10.00;;;;;;;8.88;50.81;99600.33;78674;1301;3051767;-79
2024/03/04 16:17:42;;;;;;;27.20;10.20;;;;;;;8.83;51.02;99600.59;79884;1299;3011889;-85
2024/03/04 16:20:18;;;;;;;20.80;11.60;;;;;;;8.79;51.24;99605.66;79892;1301;3013149;-82
2024/03/04 16:22:47;;;;;;;27.60;10.70;;;;;;;8.77;51.27;99604.73;78686;1298;3048538;-80
2024/03/04 16:25:14;;;;;;;22.50;10.50;;;;;;;8.74;51.49;99606.41;80859;1299;3012531;-79
2024/03/04 16:27:42;;;;;;;21.40;11.50;;;;;;;8.67;51.65;99606.07;79827;1301;3011701;-81
2024/03/04 16:30:10;;;;;;;21.70;11.30;;;;;;;8.68;51.60;99600.98;78480;1304;3053356;-81
2024/03/04 16:32:40;;;;;;;28.90;12.10;;;;;;;8.65;51.70;99601.48;79841;1298;3016011;-80
2024/03/04 16:35:09;;;;;;;23.50;11.80;;;;;;;8.65;51.71;99601.29;78598;1297;3057448;-79
2024/03/04 16:37:36;;;;;;;29.50;11.20;;;;;;;8.62;51.57;99596.23;79708;1298;3013109;-81
2024/03/04 16:40:03;;;;;;;28.30;11.60;;;;;;;8.59;51.61;99594.12;79690;1298;3012030;-80
2024/03/04 16:42:32;;;;;;;25.00;11.00;;;;;;;8.64;51.45;99598.41;78691;1300;3053089;-80
2024/03/04 16:44:59;;;;;;;33.10;14.50;;;;;;;8.64;51.66;99595.24;79858;1301;3014624;-79
2024/03/04 16:47:27;;;;;;;33.10;14.50;;;;;;;8.61;51.94;99599.60;79822;1297;3012970;-79
2024/03/04 16:49:56;;;;;;;32.70;12.40;;;;;;;8.59;51.97;99597.39;78590;1298;3055724;-81
2024/03/04 16:52:22;;;;;;;27.40;10.40;;;;;;;8.54;51.94;99598.70;79752;1297;3013712;-82
2024/03/04 16:54:50;;;;;;;28.20;10.00;;;;;;;8.50;52.01;99603.61;79769;1299;3014000;-78
2024/03/04 16:57:18;;;;;;;23.20;9.60;;;;;;;8.47;51.74;99599.05;78534;1302;3053299;-83
2024/03/04 16:59:45;;;;;;;24.70;9.70;;;;;;;8.47;51.74;99598.91;79912;1297;3013163;-83
2024/03/04 17:02:14;;;;;;;20.00;9.80;;;;;;;8.46;51.83;99598.92;79810;1298;3011884;-75
2024/03/04 17:04:45;;;;;;;26.80;9.50;;;;;;;8.42;51.74;99598.05;78488;1298;3056563;-80
2024/03/04 17:07:12;;;;;;;27.00;10.30;;;;;;;8.36;51.80;99596.95;79815;1298;3013218;-79
2024/03/04 17:09:39;;;;;;;26.20;10.20;;;;;;;8.32;51.59;99596.64;79723;1301;3011958;-78
2024/03/04 17:12:06;;;;;;;23.20;11.50;;;;;;;8.29;51.44;99592.39;78675;1297;3051340;-78
2024/03/04 17:14:33;;;;;;;23.60;11.20;;;;;;;8.20;51.40;99595.81;79591;1299;3015209;-79
2024/03/04 17:17:02;;;;;;;31.10;13.40;;;;;;;8.11;51.76;99595.17;79757;1301;3011748;-82
2024/03/04 17:19:31;;;;;;;27.90;12.30;;;;;;;8.05;51.68;99597.72;78596;1298;3056400;-78
2024/03/04 17:22:00;;;;;;;21.50;11.00;;;;;;;8.03;51.26;99600.47;79786;1298;3011636;-78
2024/03/04 17:24:29;;;;;;;21.00;10.60;;;;;;;7.97;51.40;99600.38;79172;1297;3011808;-79
2024/03/04 17:26:57;;;;;;;20.80;8.90;;;;;;;7.89;51.46;99599.59;79668;1301;3013454;-79
2024/03/04 17:29:29;;;;;;;21.30;10.10;;;;;;;7.79;51.46;99598.61;78581;1301;3053740;-78
2024/03/04 17:31:57;;;;;;;22.70;10.10;;;;;;;7.78;51.48;99597.10;79770;1298;3011355;-78
2024/03/04 17:34:27;;;;;;;24.60;10.60;;;;;;;7.68;51.58;99593.88;78381;1298;3026848;-80
2024/03/04 17:36:54;;;;;;;22.80;9.70;;;;;;;7.64;51.56;99588.51;79713;1304;3013667;-80